| time (UTC) | temp C | wind direction | speed KPH | gust KPH | rain 1hr cm | rain 24hr cm | rain mn cm | humidity % | barometer mb |
| 20260509113320 | 18 | 183 | 4.8 | 6.4 | 0.00 | 0.00 | 0.00 | 92 | 1012.0 |
| 20260509113039 | 18 | 168 | 6.4 | 8.0 | 0.00 | 0.00 | 0.00 | 92 | 1010.8 |
| 20260509112816 | 18 | 160 | 6.4 | 8.0 | 0.00 | 0.00 | 0.00 | 92 | 1012.4 |
| 20260509112530 | 18 | 160 | 3.2 | 8.0 | 0.00 | 0.00 | 0.00 | 92 | 1010.8 |
| 20260509112328 | 18 | 160 | 3.2 | 8.0 | 0.00 | 0.00 | 0.00 | 92 | 1012.4 |
| 20260509112026 | 18 | 160 | 4.8 | 8.0 | 0.00 | 0.00 | 0.00 | 92 | 1011.1 |
| 20260509111843 | 19 | 160 | 6.4 | 8.0 | 0.00 | 0.00 | 0.00 | 92 | 1012.8 |
| 20260509111551 | 18 | 160 | 6.4 | 11.3 | 0.00 | 0.00 | 0.00 | 92 | 1011.4 |
| 20260509111319 | 19 | 160 | 6.4 | 11.3 | 0.00 | 0.00 | 0.00 | 92 | 1013.0 |
| 20260509111041 | 18 | 159 | 6.4 | 11.3 | 0.00 | 0.00 | 0.00 | 92 | 1011.5 |
| 20260509110815 | 19 | 151 | 6.4 | 9.7 | 0.00 | 0.00 | 0.00 | 92 | 1013.0 |
| 20260509110532 | 19 | 143 | 3.2 | 6.4 | 0.00 | 0.00 | 0.00 | 92 | 1011.6 |
| 20260509110332 | 19 | 126 | 3.2 | 6.4 | 0.00 | 0.00 | 0.00 | 92 | 1013.2 |
| 20260509110030 | 19 | 126 | 3.2 | 6.4 | 0.00 | 0.00 | 0.00 | 92 | 1011.8 |
| 20260509105848 | 19 | 33 | 3.2 | 4.8 | 0.00 | 0.00 | 0.00 | 92 | 1013.4 |
| 20260509105554 | 19 | 33 | 0.0 | 3.2 | 0.00 | 0.00 | 0.00 | 92 | 1012.1 |
| 20260509105323 | 20 | 33 | 0.0 | 3.2 | 0.00 | 0.00 | 0.00 | 92 | 1013.7 |
| 20260509105046 | 19 | 33 | 1.6 | 4.8 | 0.00 | 0.00 | 0.00 | 92 | 1012.3 |
| 20260509104821 | 20 | 33 | 1.6 | 4.8 | 0.00 | 0.00 | 0.00 | 92 | 1014.1 |
| 20260509104540 | 19 | 33 | 0.0 | 6.4 | 0.00 | 0.00 | 0.00 | 92 | 1012.4 |
| 20260509104338 | 20 | 33 | 3.2 | 6.4 | 0.00 | 0.00 | 0.00 | 92 | 1014.0 |
| 20260509104000 | 19 | 33 | 3.2 | 6.4 | 0.00 | 0.00 | 0.00 | 92 | 1012.7 |
| 20260509103832 | 20 | 349 | 1.6 | 6.4 | 0.00 | 0.00 | 0.00 | 92 | 1014.2 |
| 20260509103554 | 19 | 4 | 0.0 | 6.4 | 0.00 | 0.00 | 0.00 | 92 | 1012.8 |
| 20260509103348 | 20 | 4 | 1.6 | 6.4 | 0.00 | 0.00 | 0.00 | 92 | 1014.3 |
| 20260509103027 | 19 | 4 | 3.2 | 9.7 | 0.00 | 0.00 | 0.00 | 92 | 1012.8 |
| 20260509102824 | 20 | 4 | 3.2 | 14.5 | 0.00 | 0.00 | 0.00 | 92 | 1014.3 |
| 20260509102523 | 19 | 331 | 3.2 | 14.5 | 0.00 | 0.00 | 0.00 | 92 | 1012.9 |
| 20260509102321 | 20 | 328 | 4.8 | 14.5 | 0.00 | 0.00 | 0.00 | 92 | 1014.5 |
| 20260509102007 | 19 | 320 | 6.4 | 14.5 | 0.00 | 0.00 | 0.00 | 92 | 1013.1 |
| 20260509101818 | 19 | 348 | 6.4 | 14.5 | 0.00 | 0.00 | 0.00 | 92 | 1014.5 |
| 20260509101501 | 19 | 21 | 6.4 | 14.5 | 0.00 | 0.00 | 0.00 | 92 | 1013.0 |
| 20260509101314 | 19 | 330 | 6.4 | 14.5 | 0.00 | 0.00 | 0.00 | 92 | 1014.5 |
| 20260509101054 | 18 | 17 | 8.0 | 14.5 | 0.00 | 0.00 | 0.00 | 92 | 1013.0 |
| 20260509100831 | 19 | 339 | 9.7 | 14.5 | 0.00 | 0.00 | 0.00 | 92 | 1014.5 |
| 20260509100544 | 18 | 4 | 6.4 | 14.5 | 0.00 | 0.00 | 0.00 | 92 | 1012.9 |
| 20260509100327 | 19 | 320 | 6.4 | 12.9 | 0.00 | 0.00 | 0.00 | 92 | 1014.4 |
| 20260509100037 | 18 | 320 | 6.4 | 11.3 | 0.00 | 0.00 | 0.00 | 92 | 1012.7 |
| 20260509095842 | 19 | 347 | 6.4 | 9.7 | 0.00 | 0.00 | 0.00 | 92 | 1014.1 |
| 20260509095600 | 18 | 348 | 4.8 | 8.0 | 0.00 | 0.00 | 0.00 | 92 | 1012.3 |
| 20260509095318 | 19 | 320 | 4.8 | 9.7 | 0.00 | 0.00 | 0.00 | 92 | 1013.7 |
| 20260509095054 | 18 | 295 | 3.2 | 9.7 | 0.00 | 0.00 | 0.00 | 92 | 1012.1 |
| 20260509094815 | 19 | 287 | 4.8 | 9.7 | 0.00 | 0.00 | 0.00 | 92 | 1013.5 |
| 20260509094547 | 18 | 288 | 6.4 | 9.7 | 0.00 | 0.00 | 0.00 | 92 | 1012.1 |
| 20260509094350 | 19 | 308 | 4.8 | 8.0 | 0.00 | 0.00 | 0.00 | 92 | 1013.7 |
| 20260509094009 | 18 | 294 | 1.6 | 3.2 | 0.00 | 0.00 | 0.00 | 92 | 1012.1 |
| 20260509093827 | 19 | 294 | 1.6 | 4.8 | 0.00 | 0.00 | 0.00 | 92 | 1013.6 |
| 20260509093600 | 18 | 294 | 1.6 | 4.8 | 0.00 | 0.00 | 0.00 | 92 | 1012.0 |
| 20260509093323 | 19 | 294 | 1.6 | 4.8 | 0.00 | 0.00 | 0.00 | 92 | 1013.6 |
| 20260509093050 | 18 | 295 | 1.6 | 4.8 | 0.00 | 0.00 | 0.00 | 92 | 1012.1 |
| 20260509092819 | 19 | 294 | 1.6 | 6.4 | 0.00 | 0.00 | 0.00 | 92 | 1013.6 |
| 20260509092550 | 18 | 294 | 1.6 | 8.0 | 0.00 | 0.00 | 0.00 | 92 | 1012.1 |
| 20260509092315 | 19 | 295 | 3.2 | 8.0 | 0.00 | 0.00 | 0.00 | 92 | 1013.6 |
| 20260509092044 | 18 | 294 | 3.2 | 8.0 | 0.00 | 0.00 | 0.00 | 92 | 1012.2 |
| 20260509091832 | 19 | 341 | 4.8 | 8.0 | 0.00 | 0.00 | 0.00 | 92 | 1013.6 |
| 20260509091539 | 19 | 342 | 6.4 | 8.0 | 0.00 | 0.00 | 0.00 | 92 | 1012.1 |
| 20260509091329 | 19 | 325 | 3.2 | 6.4 | 0.00 | 0.00 | 0.00 | 92 | 1013.0 |
| 20260509091028 | 19 | 211 | 3.2 | 6.4 | 0.00 | 0.00 | 0.00 | 92 | 1011.2 |
| 20260509090825 | 19 | 4 | 3.2 | 4.8 | 0.00 | 0.00 | 0.00 | 92 | 1012.7 |
| 20260509090525 | 19 | 4 | 0.0 | 3.2 | 0.00 | 0.00 | 0.00 | 92 | 1011.7 |
| 20260509090343 | 19 | 4 | 0.0 | 3.2 | 0.00 | 0.00 | 0.00 | 92 | 1013.4 |
| 20260509090055 | 19 | 4 | 1.6 | 6.4 | 0.00 | 0.00 | 0.00 | 92 | 1012.1 |
| 20260509085817 | 19 | 4 | 1.6 | 9.7 | 0.00 | 0.00 | 0.00 | 92 | 1013.5 |
| 20260509085540 | 19 | 4 | 1.6 | 9.7 | 0.00 | 0.00 | 0.00 | 92 | 1011.9 |
| 20260509085328 | 19 | 4 | 3.2 | 9.7 | 0.00 | 0.00 | 0.00 | 92 | 1013.4 |
| 20260509085002 | 19 | 354 | 6.4 | 11.3 | 0.00 | 0.00 | 0.00 | 92 | 1012.0 |
| 20260509084825 | 19 | 27 | 6.4 | 9.7 | 0.00 | 0.00 | 0.00 | 92 | 1013.5 |
| 20260509084557 | 19 | 14 | 6.4 | 8.0 | 0.00 | 0.00 | 0.00 | 91 | 1011.6 |
| 20260509084322 | 19 | 173 | 6.4 | 8.0 | 0.00 | 0.00 | 0.00 | 91 | 1012.8 |
| 20260509084050 | 19 | 172 | 0.0 | 3.2 | 0.00 | 0.00 | 0.00 | 91 | 1011.0 |
| 20260509083817 | 20 | 172 | 0.0 | 3.2 | 0.00 | 0.00 | 0.00 | 91 | 1012.4 |
| 20260509083543 | 19 | 172 | 0.0 | 3.2 | 0.00 | 0.00 | 0.00 | 91 | 1011.0 |
| 20260509083314 | 20 | 172 | 0.0 | 3.2 | 0.00 | 0.00 | 0.00 | 91 | 1012.5 |
| 20260509083038 | 20 | 172 | 0.0 | 3.2 | 0.00 | 0.00 | 0.00 | 91 | 1011.0 |
| 20260509082831 | 20 | 172 | 1.6 | 3.2 | 0.00 | 0.00 | 0.00 | 91 | 1012.3 |
| 20260509082530 | 20 | 172 | 0.0 | 1.6 | 0.00 | 0.00 | 0.00 | 91 | 1010.8 |
| 20260509082328 | 20 | 173 | 0.0 | 1.6 | 0.00 | 0.00 | 0.00 | 91 | 1012.3 |
| 20260509082010 | 20 | 172 | 0.0 | 1.6 | 0.00 | 0.00 | 0.00 | 91 | 1011.0 |
| 20260509081824 | 20 | 172 | 0.0 | 1.6 | 0.00 | 0.00 | 0.00 | 91 | 1012.6 |
| 20260509081506 | 20 | 172 | 0.0 | 4.8 | 0.00 | 0.00 | 0.00 | 91 | 1011.2 |
| 20260509081339 | 20 | 172 | 0.0 | 4.8 | 0.00 | 0.00 | 0.00 | 91 | 1012.7 |
| 20260509081035 | 20 | 172 | 0.0 | 6.4 | 0.00 | 0.00 | 0.00 | 91 | 1011.2 |
| 20260509080814 | 20 | 172 | 3.2 | 6.4 | 0.00 | 0.00 | 0.00 | 92 | 1012.6 |
| 20260509080529 | 20 | 172 | 3.2 | 6.4 | 0.00 | 0.00 | 0.00 | 92 | 1011.2 |
| 20260509080330 | 20 | 172 | 4.8 | 8.0 | 0.00 | 0.00 | 0.00 | 92 | 1012.6 |
| 20260509080014 | 20 | 172 | 3.2 | 11.3 | 0.00 | 0.00 | 0.00 | 92 | 1011.2 |
| 20260509075826 | 20 | 172 | 4.8 | 11.3 | 0.00 | 0.00 | 0.00 | 92 | 1012.6 |
| 20260509075504 | 20 | 195 | 4.8 | 14.5 | 0.00 | 0.00 | 0.00 | 92 | 1011.2 |
| 20260509075341 | 20 | 206 | 8.0 | 14.5 | 0.00 | 0.00 | 0.00 | 92 | 1012.6 |
| 20260509075038 | 20 | 194 | 8.0 | 16.1 | 0.00 | 0.00 | 0.00 | 92 | 1011.0 |
| 20260509074816 | 20 | 201 | 9.7 | 17.7 | 0.00 | 0.00 | 0.00 | 92 | 1012.4 |
| 20260509074504 | 20 | 208 | 11.3 | 17.7 | 0.00 | 0.00 | 0.00 | 92 | 1011.0 |
| 20260509074333 | 20 | 201 | 11.3 | 17.7 | 0.00 | 0.00 | 0.00 | 92 | 1012.4 |
| 20260509074054 | 20 | 210 | 12.9 | 17.7 | 0.00 | 0.00 | 0.00 | 92 | 1010.9 |
| 20260509073828 | 20 | 188 | 12.9 | 16.1 | 0.00 | 0.00 | 0.00 | 92 | 1012.4 |
| 20260509073545 | 19 | 206 | 9.7 | 14.5 | 0.00 | 0.00 | 0.00 | 92 | 1011.0 |
| 20260509073344 | 20 | 177 | 11.3 | 14.5 | 0.00 | 0.00 | 0.00 | 92 | 1012.6 |
| 20260509073018 | 19 | 197 | 8.0 | 14.5 | 0.00 | 0.00 | 0.00 | 92 | 1011.5 |
| 20260509072820 | 19 | 201 | 8.0 | 12.9 | 0.00 | 0.00 | 0.00 | 92 | 1012.9 |
| 20260509072516 | 19 | 202 | 6.4 | 12.9 | 0.00 | 0.00 | 0.00 | 92 | 1011.5 |
| 20260509072317 | 19 | 210 | 6.4 | 12.9 | 0.00 | 0.00 | 0.00 | 92 | 1013.0 |
| 20260509072057 | 19 | 214 | 6.4 | 12.9 | 0.00 | 0.00 | 0.00 | 92 | 1011.5 |
| 20260509071833 | 19 | 211 | 8.0 | 12.9 | 0.00 | 0.00 | 0.00 | 92 | 1012.9 |
| 20260509071607 | 19 | 202 | 8.0 | 11.3 | 0.00 | 0.00 | 0.00 | 91 | 1011.5 |
| 20260509071330 | 19 | 197 | 6.4 | 9.7 | 0.00 | 0.00 | 0.00 | 91 | 1013.0 |
| 20260509071046 | 19 | 212 | 3.2 | 6.4 | 0.00 | 0.00 | 0.00 | 91 | 1011.7 |
| 20260509070826 | 19 | 212 | 3.2 | 4.8 | 0.00 | 0.00 | 0.00 | 91 | 1013.2 |
| 20260509070538 | 18 | 194 | 0.0 | 0.0 | 0.00 | 0.00 | 0.00 | 91 | 1011.9 |
| 20260509070323 | 19 | 194 | 0.0 | 0.0 | 0.00 | 0.00 | 0.00 | 91 | 1013.3 |
| 20260509070034 | 18 | 194 | 0.0 | 0.0 | 0.00 | 0.00 | 0.00 | 91 | 1011.9 |
| 20260509065840 | 19 | 194 | 0.0 | 1.6 | 0.00 | 0.00 | 0.00 | 91 | 1013.1 |
| 20260509065559 | 19 | 194 | 0.0 | 3.2 | 0.00 | 0.00 | 0.00 | 91 | 1011.6 |
| 20260509065316 | 19 | 194 | 0.0 | 3.2 | 0.00 | 0.00 | 0.00 | 91 | 1012.9 |
| 20260509065054 | 19 | 194 | 0.0 | 3.2 | 0.00 | 0.00 | 0.00 | 91 | 1011.5 |
| 20260509064832 | 19 | 194 | 1.6 | 3.2 | 0.00 | 0.00 | 0.00 | 91 | 1012.9 |
| 20260509064544 | 19 | 194 | 1.6 | 3.2 | 0.00 | 0.00 | 0.00 | 91 | 1011.6 |
| 20260509064329 | 20 | 194 | 0.0 | 1.6 | 0.00 | 0.00 | 0.00 | 91 | 1013.0 |
| 20260509064039 | 19 | 194 | 0.0 | 1.6 | 0.00 | 0.00 | 0.00 | 91 | 1011.7 |
| 20260509063825 | 20 | 194 | 0.0 | 1.6 | 0.00 | 0.00 | 0.00 | 91 | 1013.1 |
| 20260509063530 | 19 | 194 | 0.0 | 1.6 | 0.00 | 0.00 | 0.00 | 91 | 1011.8 |
| 20260509063342 | 20 | 194 | 0.0 | 1.6 | 0.00 | 0.00 | 0.00 | 91 | 1013.1 |
| 20260509063054 | 19 | 194 | 0.0 | 3.2 | 0.00 | 0.00 | 0.00 | 91 | 1012.0 |
| 20260509062832 | 20 | 194 | 0.0 | 4.8 | 0.00 | 0.00 | 0.00 | 91 | 1013.3 |
| 20260509062529 | 19 | 194 | 0.0 | 4.8 | 0.00 | 0.00 | 0.00 | 91 | 1012.0 |
| 20260509062326 | 20 | 194 | 3.2 | 6.4 | 0.00 | 0.00 | 0.00 | 91 | 1013.3 |
| 20260509062024 | 19 | 194 | 3.2 | 6.4 | 0.00 | 0.00 | 0.00 | 91 | 1012.0 |
| 20260509061821 | 20 | 194 | 3.2 | 6.4 | 0.00 | 0.00 | 0.00 | 91 | 1013.3 |
| 20260509061519 | 19 | 194 | 3.2 | 6.4 | 0.00 | 0.00 | 0.00 | 91 | 1011.9 |
| 20260509061316 | 20 | 194 | 3.2 | 6.4 | 0.00 | 0.00 | 0.00 | 91 | 1013.2 |
| 20260509061101 | 20 | 194 | 3.2 | 6.4 | 0.00 | 0.00 | 0.00 | 91 | 1011.8 |
| 20260509060852 | 20 | 194 | 4.8 | 6.4 | 0.00 | 0.00 | 0.00 | 91 | 1013.0 |
| 20260509060531 | 20 | 267 | 3.2 | 4.8 | 0.00 | 0.00 | 0.00 | 91 | 1011.9 |
| 20260509060323 | 20 | 267 | 3.2 | 4.8 | 0.00 | 0.00 | 0.00 | 91 | 1013.1 |
| 20260509060118 | 19 | 267 | 1.6 | 3.2 | 0.00 | 0.00 | 0.00 | 91 | 1011.8 |
| 20260509055815 | 20 | 267 | 1.6 | 3.2 | 0.00 | 0.00 | 0.00 | 91 | 1013.1 |
| 20260509055552 | 19 | 267 | 0.0 | 6.4 | 0.00 | 0.00 | 0.00 | 91 | 1011.9 |
| 20260509055331 | 20 | 267 | 0.0 | 6.4 | 0.00 | 0.00 | 0.00 | 91 | 1013.3 |
| 20260509055045 | 19 | 267 | 0.0 | 6.4 | 0.00 | 0.00 | 0.00 | 91 | 1012.1 |
| 20260509054828 | 20 | 266 | 3.2 | 6.4 | 0.00 | 0.00 | 0.00 | 91 | 1013.4 |
| 20260509054540 | 19 | 285 | 1.6 | 4.8 | 0.00 | 0.00 | 0.00 | 91 | 1012.1 |
| 20260509054323 | 19 | 285 | 1.6 | 4.8 | 0.00 | 0.00 | 0.00 | 91 | 1013.3 |
| 20260509054030 | 19 | 285 | 1.6 | 4.8 | 0.00 | 0.00 | 0.00 | 91 | 1011.9 |
| 20260509053820 | 19 | 285 | 3.2 | 4.8 | 0.00 | 0.00 | 0.00 | 91 | 1013.1 |
| 20260509053524 | 18 | 312 | 0.0 | 8.0 | 0.00 | 0.00 | 0.00 | 91 | 1011.4 |
| 20260509053315 | 19 | 312 | 1.6 | 8.0 | 0.00 | 0.00 | 0.00 | 91 | 1012.7 |
| 20260509053014 | 18 | 312 | 1.6 | 8.0 | 0.00 | 0.00 | 0.00 | 91 | 1011.4 |
| 20260509052830 | 19 | 312 | 4.8 | 8.0 | 0.00 | 0.00 | 0.00 | 91 | 1012.7 |
| 20260509052547 | 18 | 312 | 4.8 | 8.0 | 0.00 | 0.00 | 0.00 | 91 | 1011.3 |
| 20260509052326 | 19 | 321 | 3.2 | 4.8 | 0.00 | 0.00 | 0.00 | 91 | 1012.6 |
| 20260509052037 | 18 | 153 | 3.2 | 4.8 | 0.00 | 0.00 | 0.00 | 91 | 1011.0 |
| 20260509051824 | 19 | 153 | 3.2 | 4.8 | 0.00 | 0.00 | 0.00 | 91 | 1012.5 |
| 20260509051530 | 18 | 152 | 1.6 | 3.2 | 0.00 | 0.00 | 0.00 | 91 | 1011.2 |
| 20260509051321 | 19 | 153 | 1.6 | 3.2 | 0.00 | 0.00 | 0.00 | 91 | 1012.5 |
| 20260509051024 | 18 | 153 | 0.0 | 3.2 | 0.00 | 0.00 | 0.00 | 91 | 1011.0 |
| 20260509050838 | 18 | 154 | 0.0 | 3.2 | 0.00 | 0.00 | 0.00 | 91 | 1012.3 |
| 20260509050548 | 18 | 153 | 1.6 | 4.8 | 0.00 | 0.00 | 0.00 | 91 | 1011.0 |
| 20260509050329 | 18 | 153 | 1.6 | 4.8 | 0.00 | 0.00 | 0.00 | 91 | 1012.2 |
| 20260509050051 | 18 | 153 | 1.6 | 4.8 | 0.00 | 0.00 | 0.00 | 91 | 1010.9 |
| 20260509045835 | 18 | 153 | 3.2 | 4.8 | 0.00 | 0.00 | 0.00 | 90 | 1012.1 |
| 20260509045538 | 18 | 153 | 3.2 | 4.8 | 0.00 | 0.00 | 0.00 | 90 | 1010.8 |
| 20260509045330 | 19 | 154 | 3.2 | 4.8 | 0.00 | 0.00 | 0.00 | 90 | 1012.1 |
| 20260509045035 | 19 | 153 | 1.6 | 3.2 | 0.00 | 0.00 | 0.00 | 90 | 1010.6 |
| 20260509044826 | 19 | 153 | 1.6 | 3.2 | 0.00 | 0.00 | 0.00 | 90 | 1012.0 |
| 20260509044524 | 19 | 153 | 0.0 | 1.6 | 0.00 | 0.00 | 0.00 | 90 | 1010.4 |
| 20260509044322 | 20 | 153 | 0.0 | 1.6 | 0.00 | 0.00 | 0.00 | 90 | 1011.7 |
| 20260509044045 | 19 | 153 | 0.0 | 3.2 | 0.00 | 0.00 | 0.00 | 90 | 1010.4 |
| 20260509043850 | 20 | 154 | 0.0 | 4.8 | 0.00 | 0.00 | 0.00 | 90 | 1011.7 |
| 20260509043508 | 19 | 153 | 0.0 | 4.8 | 0.00 | 0.00 | 0.00 | 90 | 1010.4 |
| 20260509043325 | 20 | 153 | 1.6 | 4.8 | 0.00 | 0.00 | 0.00 | 90 | 1011.8 |
| 20260509043103 | 19 | 154 | 0.0 | 3.2 | 0.00 | 0.00 | 0.00 | 90 | 1010.5 |
| 20260509042822 | 20 | 153 | 0.0 | 1.6 | 0.00 | 0.00 | 0.00 | 90 | 1011.9 |
| 20260509042556 | 19 | 153 | 0.0 | 0.0 | 0.00 | 0.00 | 0.00 | 90 | 1010.6 |
| 20260509042318 | 20 | 153 | 0.0 | 3.2 | 0.00 | 0.00 | 0.00 | 90 | 1011.9 |
| 20260509042048 | 19 | 153 | 0.0 | 4.8 | 0.00 | 0.00 | 0.00 | 90 | 1010.7 |
| 20260509041815 | 20 | 153 | 0.0 | 4.8 | 0.00 | 0.00 | 0.00 | 90 | 1012.1 |
| 20260509041541 | 20 | 153 | 1.6 | 4.8 | 0.00 | 0.00 | 0.00 | 90 | 1010.8 |
| 20260509041331 | 20 | 153 | 3.2 | 4.8 | 0.00 | 0.00 | 0.00 | 90 | 1012.2 |
| 20260509041034 | 20 | 153 | 0.0 | 3.2 | 0.00 | 0.00 | 0.00 | 89 | 1010.8 |
| 20260509040828 | 20 | 154 | 0.0 | 1.6 | 0.00 | 0.00 | 0.00 | 89 | 1012.2 |
| 20260509040527 | 20 | 153 | 0.0 | 1.6 | 0.00 | 0.00 | 0.00 | 89 | 1010.8 |
| 20260509040325 | 20 | 153 | 0.0 | 0.0 | 0.00 | 0.00 | 0.00 | 89 | 1012.1 |
| 20260509040010 | 20 | 154 | 0.0 | 1.6 | 0.00 | 0.00 | 0.00 | 89 | 1010.9 |
| 20260509035820 | 20 | 154 | 0.0 | 1.6 | 0.00 | 0.00 | 0.00 | 89 | 1012.1 |
| 20260509035508 | 20 | 154 | 0.0 | 1.6 | 0.00 | 0.00 | 0.00 | 89 | 1010.9 |
| 20260509035315 | 20 | 153 | 0.0 | 1.6 | 0.00 | 0.00 | 0.00 | 89 | 1012.2 |
| 20260509035057 | 20 | 153 | 0.0 | 0.0 | 0.00 | 0.00 | 0.00 | 89 | 1010.9 |
| 20260509034831 | 20 | 153 | 0.0 | 0.0 | 0.00 | 0.00 | 0.00 | 89 | 1012.1 |
| 20260509034552 | 20 | 153 | 0.0 | 0.0 | 0.00 | 0.00 | 0.00 | 89 | 1010.8 |
| 20260509034328 | 20 | 153 | 0.0 | 0.0 | 0.00 | 0.00 | 0.00 | 89 | 1012.0 |
| 20260509034044 | 20 | 153 | 0.0 | 0.0 | 0.00 | 0.00 | 0.00 | 89 | 1010.7 |
| 20260509033845 | 20 | 153 | 0.0 | 0.0 | 0.00 | 0.00 | 0.00 | 89 | 1012.1 |
| 20260509033510 | 20 | 154 | 0.0 | 0.0 | 0.00 | 0.00 | 0.00 | 89 | 1010.8 |
| 20260509033341 | 20 | 153 | 0.0 | 0.0 | 0.00 | 0.00 | 0.00 | 89 | 1012.0 |
| 20260509033042 | 20 | 153 | 0.0 | 0.0 | 0.00 | 0.00 | 0.00 | 89 | 1010.8 |
| 20260509032817 | 20 | 153 | 0.0 | 0.0 | 0.00 | 0.00 | 0.00 | 89 | 1012.1 |
| 20260509032534 | 20 | 154 | 0.0 | 0.0 | 0.00 | 0.00 | 0.00 | 89 | 1010.7 |
| 20260509032314 | 20 | 154 | 0.0 | 0.0 | 0.00 | 0.00 | 0.00 | 89 | 1012.0 |
| 20260509032027 | 20 | 153 | 0.0 | 0.0 | 0.00 | 0.00 | 0.00 | 89 | 1010.7 |
| 20260509031830 | 20 | 153 | 0.0 | 0.0 | 0.00 | 0.00 | 0.00 | 89 | 1011.9 |
| 20260509031516 | 20 | 153 | 0.0 | 0.0 | 0.00 | 0.00 | 0.00 | 89 | 1010.6 |
| 20260509031347 | 21 | 153 | 0.0 | 0.0 | 0.00 | 0.00 | 0.00 | 89 | 1011.8 |
| 20260509031040 | 20 | 154 | 0.0 | 1.6 | 0.00 | 0.00 | 0.00 | 89 | 1010.5 |
| 20260509030822 | 21 | 153 | 0.0 | 1.6 | 0.00 | 0.00 | 0.00 | 89 | 1011.6 |
| 20260509030532 | 20 | 154 | 0.0 | 3.2 | 0.00 | 0.00 | 0.00 | 89 | 1010.2 |
| 20260509030335 | 21 | 153 | 0.0 | 3.2 | 0.00 | 0.00 | 0.00 | 89 | 1011.4 |
| 20260509030100 | 20 | 153 | 0.0 | 4.8 | 0.00 | 0.00 | 0.00 | 89 | 1010.2 |
| 20260509025832 | 21 | 153 | 1.6 | 4.8 | 0.00 | 0.00 | 0.00 | 89 | 1011.4 |
| 20260509025551 | 20 | 153 | 1.6 | 8.0 | 0.00 | 0.00 | 0.00 | 89 | 1010.0 |
| 20260509025349 | 21 | 153 | 1.6 | 8.0 | 0.00 | 0.00 | 0.00 | 89 | 1011.3 |
| 20260509025021 | 20 | 154 | 3.2 | 8.0 | 0.00 | 0.00 | 0.00 | 89 | 1010.0 |
| 20260509024844 | 21 | 153 | 4.8 | 8.0 | 0.00 | 0.00 | 0.00 | 89 | 1011.2 |
| 20260509024544 | 21 | 154 | 3.2 | 8.0 | 0.00 | 0.00 | 0.00 | 89 | 1010.0 |
| 20260509024339 | 21 | 154 | 4.8 | 6.4 | 0.00 | 0.00 | 0.00 | 89 | 1011.2 |
| 20260509024015 | 21 | 154 | 1.6 | 8.0 | 0.00 | 0.00 | 0.00 | 89 | 1010.0 |
| 20260509023815 | 21 | 153 | 1.6 | 8.0 | 0.00 | 0.00 | 0.00 | 89 | 1011.3 |
| 20260509023600 | 21 | 154 | 3.2 | 8.0 | 0.00 | 0.00 | 0.00 | 89 | 1010.1 |
| 20260509023331 | 21 | 153 | 3.2 | 8.0 | 0.00 | 0.00 | 0.00 | 89 | 1011.2 |
| 20260509023057 | 21 | 154 | 1.6 | 8.0 | 0.00 | 0.00 | 0.00 | 88 | 1010.0 |
| 20260509022846 | 21 | 153 | 3.2 | 8.0 | 0.00 | 0.00 | 0.00 | 88 | 1011.2 |
| 20260509022523 | 21 | 154 | 1.6 | 8.0 | 0.00 | 0.00 | 0.00 | 88 | 1010.0 |
| 20260509022320 | 21 | 153 | 1.6 | 11.3 | 0.00 | 0.00 | 0.00 | 88 | 1011.1 |
| 20260509022006 | 21 | 154 | 3.2 | 11.3 | 0.00 | 0.00 | 0.00 | 88 | 1009.8 |
| 20260509021817 | 21 | 136 | 4.8 | 11.3 | 0.00 | 0.00 | 0.00 | 88 | 1011.0 |
| 20260509021600 | 21 | 149 | 6.4 | 9.7 | 0.00 | 0.00 | 0.00 | 88 | 1009.8 |
| 20260509021314 | 21 | 154 | 4.8 | 8.0 | 0.00 | 0.00 | 0.00 | 88 | 1011.0 |
| 20260509021053 | 21 | 138 | 3.2 | 8.0 | 0.00 | 0.00 | 0.00 | 88 | 1009.8 |
| 20260509020831 | 21 | 135 | 3.2 | 11.3 | 0.00 | 0.00 | 0.00 | 88 | 1010.9 |
| 20260509020546 | 21 | 146 | 4.8 | 11.3 | 0.00 | 0.00 | 0.00 | 88 | 1009.7 |
| 20260509020327 | 21 | 140 | 4.8 | 11.3 | 0.00 | 0.00 | 0.00 | 87 | 1010.8 |
| 20260509020038 | 21 | 131 | 4.8 | 9.7 | 0.00 | 0.00 | 0.00 | 88 | 1009.6 |
| 20260509015822 | 21 | 148 | 4.8 | 11.3 | 0.00 | 0.00 | 0.00 | 87 | 1010.8 |
| 20260509015603 | 21 | 152 | 4.8 | 11.3 | 0.00 | 0.00 | 0.00 | 87 | 1009.6 |
| 20260509015318 | 21 | 156 | 6.4 | 11.3 | 0.00 | 0.00 | 0.00 | 87 | 1010.8 |
| 20260509015051 | 21 | 152 | 6.4 | 11.3 | 0.00 | 0.00 | 0.00 | 87 | 1009.6 |
| 20260509014814 | 21 | 158 | 8.0 | 11.3 | 0.00 | 0.00 | 0.00 | 87 | 1010.9 |
| 20260509014544 | 21 | 139 | 3.2 | 9.7 | 0.00 | 0.00 | 0.00 | 87 | 1009.6 |
| 20260509014331 | 22 | 136 | 1.6 | 6.4 | 0.00 | 0.00 | 0.00 | 86 | 1010.8 |
| 20260509014012 | 21 | 148 | 0.0 | 0.0 | 0.00 | 0.00 | 0.00 | 87 | 1009.7 |
| 20260509013829 | 22 | 143 | 0.0 | 0.0 | 0.00 | 0.00 | 0.00 | 86 | 1010.9 |
| 20260509013544 | 21 | 135 | 0.0 | 0.0 | 0.00 | 0.00 | 0.00 | 86 | 1009.6 |
| 20260509013344 | 22 | 125 | 0.0 | 0.0 | 0.00 | 0.00 | 0.00 | 86 | 1010.8 |
| 20260509013027 | 22 | 127 | 0.0 | 0.0 | 0.00 | 0.00 | 0.00 | 86 | 1009.6 |
| 20260509012818 | 22 | 156 | 0.0 | 0.0 | 0.00 | 0.00 | 0.00 | 86 | 1010.8 |
| 20260509012502 | 22 | 142 | 0.0 | 0.0 | 0.00 | 0.00 | 0.00 | 86 | 1009.8 |
| 20260509012333 | 22 | 137 | 0.0 | 0.0 | 0.00 | 0.00 | 0.00 | 86 | 1011.1 |
| 20260509012054 | 22 | 106 | 0.0 | 0.0 | 0.00 | 0.00 | 0.00 | 86 | 1009.8 |
| 20260509011830 | 22 | 106 | 0.0 | 0.0 | 0.00 | 0.00 | 0.00 | 85 | 1011.2 |
| 20260509011548 | 22 | 106 | 0.0 | 0.0 | 0.00 | 0.00 | 0.00 | 85 | 1009.9 |
| 20260509011329 | 22 | 106 | 0.0 | 0.0 | 0.00 | 0.00 | 0.00 | 85 | 1011.1 |
| 20260509011036 | 22 | 112 | 0.0 | 0.0 | 0.00 | 0.00 | 0.00 | 85 | 1009.9 |
| 20260509010824 | 22 | 112 | 0.0 | 0.0 | 0.00 | 0.00 | 0.00 | 85 | 1011.0 |
| 20260509010528 | 22 | 112 | 0.0 | 0.0 | 0.00 | 0.00 | 0.00 | 85 | 1009.8 |
| 20260509010320 | 22 | 112 | 0.0 | 0.0 | 0.00 | 0.00 | 0.00 | 85 | 1010.9 |
| 20260509010027 | 22 | 103 | 0.0 | 0.0 | 0.00 | 0.00 | 0.00 | 85 | 1009.6 |
| 20260509005816 | 22 | 101 | 0.0 | 0.0 | 0.00 | 0.00 | 0.00 | 85 | 1010.7 |
| 20260509005517 | 22 | 156 | 0.0 | 0.0 | 0.00 | 0.00 | 0.00 | 85 | 1009.5 |
| 20260509005332 | 22 | 120 | 0.0 | 0.0 | 0.00 | 0.00 | 0.00 | 85 | 1010.6 |
| 20260509005059 | 22 | 149 | 0.0 | 0.0 | 0.00 | 0.00 | 0.00 | 85 | 1009.3 |
| 20260509004829 | 22 | 145 | 0.0 | 0.0 | 0.00 | 0.00 | 0.00 | 85 | 1010.5 |
| 20260509004555 | 22 | 85 | 0.0 | 0.0 | 0.00 | 0.00 | 0.00 | 85 | 1009.3 |
| 20260509004325 | 22 | 117 | 0.0 | 0.0 | 0.00 | 0.00 | 0.00 | 85 | 1010.5 |
| 20260509004044 | 22 | 139 | 0.0 | 0.0 | 0.00 | 0.00 | 0.00 | 85 | 1009.2 |
| 20260509003822 | 22 | 101 | 0.0 | 0.0 | 0.00 | 0.00 | 0.00 | 85 | 1010.4 |
| 20260509003536 | 22 | 98 | 0.0 | 0.0 | 0.00 | 0.00 | 0.00 | 85 | 1009.1 |
| 20260509003317 | 22 | 109 | 0.0 | 0.0 | 0.00 | 0.00 | 0.00 | 84 | 1010.4 |
| 20260509003032 | 22 | 95 | 0.0 | 0.0 | 0.00 | 0.00 | 0.00 | 84 | 1009.2 |
| 20260509002833 | 22 | 112 | 0.0 | 0.0 | 0.00 | 0.00 | 0.00 | 84 | 1010.4 |
| 20260509002528 | 22 | 62 | 0.0 | 0.0 | 0.00 | 0.00 | 0.00 | 84 | 1009.3 |
| 20260509002330 | 22 | 94 | 0.0 | 0.0 | 0.00 | 0.00 | 0.00 | 84 | 1010.5 |
| 20260509002012 | 22 | 101 | 0.0 | 0.0 | 0.00 | 0.00 | 0.00 | 84 | 1009.3 |
| 20260509001827 | 22 | 106 | 0.0 | 0.0 | 0.00 | 0.00 | 0.00 | 84 | 1010.5 |
| 20260509001600 | 22 | 79 | 0.0 | 0.0 | 0.00 | 0.00 | 0.00 | 84 | 1009.4 |
| 20260509001324 | 22 | 80 | 0.0 | 0.0 | 0.00 | 0.00 | 0.00 | 84 | 1010.5 |
| 20260509001053 | 22 | 80 | 0.0 | 0.0 | 0.00 | 0.00 | 0.00 | 84 | 1009.3 |
| 20260509000820 | 22 | 120 | 0.0 | 0.0 | 0.00 | 0.00 | 0.00 | 84 | 1010.5 |
| 20260509000550 | 22 | 110 | 0.0 | 0.0 | 0.00 | 0.00 | 0.00 | 84 | 1009.4 |
| 20260509000318 | 22 | 139 | 0.0 | 0.0 | 0.00 | 0.00 | 0.00 | 84 | 1010.6 |
| 20260509000053 | 22 | 95 | 0.0 | 0.0 | 0.00 | 0.00 | 0.00 | 84 | 1009.3 |
| 20260508235832 | 22 | 128 | 0.0 | 0.0 | 0.00 | 0.00 | 0.00 | 84 | 1010.5 |
| 20260508235532 | 22 | 167 | 0.0 | 0.0 | 0.00 | 0.00 | 0.00 | 84 | 1009.2 |
| 20260508235327 | 22 | 97 | 0.0 | 0.0 | 0.00 | 0.00 | 0.00 | 84 | 1010.4 |
| 20260508235027 | 22 | 53 | 0.0 | 0.0 | 0.00 | 0.00 | 0.00 | 84 | 1009.3 |
| 20260508234844 | 22 | 79 | 0.0 | 0.0 | 0.00 | 0.00 | 0.00 | 84 | 1010.5 |
| 20260508234608 | 22 | 125 | 0.0 | 0.0 | 0.00 | 0.00 | 0.00 | 84 | 1009.4 |
| 20260508234321 | 22 | 104 | 0.0 | 0.0 | 0.00 | 0.00 | 0.00 | 84 | 1010.5 |
| 20260508234050 | 22 | 111 | 0.0 | 0.0 | 0.00 | 0.00 | 0.00 | 83 | 1009.3 |
| 20260508233818 | 22 | 113 | 0.0 | 0.0 | 0.00 | 0.00 | 0.00 | 83 | 1010.7 |
| 20260508233540 | 22 | 124 | 0.0 | 0.0 | 0.00 | 0.00 | 0.00 | 83 | 1009.5 |
| 20260508233351 | 22 | 102 | 0.0 | 0.0 | 0.00 | 0.00 | 0.00 | 84 | 1010.6 |
| 20260508233002 | 22 | 79 | 0.0 | 0.0 | 0.00 | 0.00 | 0.00 | 83 | 1009.5 |
| 20260508232826 | 22 | 108 | 0.0 | 0.0 | 0.00 | 0.00 | 0.00 | 83 | 1010.7 |
| 20260508232557 | 22 | 85 | 0.0 | 0.0 | 0.00 | 0.00 | 0.00 | 83 | 1009.4 |
| 20260508232321 | 22 | 141 | 0.0 | 0.0 | 0.00 | 0.00 | 0.00 | 83 | 1010.6 |
| 20260508232049 | 22 | 116 | 0.0 | 0.0 | 0.00 | 0.00 | 0.00 | 83 | 1009.4 |
| 20260508231816 | 22 | 110 | 0.0 | 0.0 | 0.00 | 0.00 | 0.00 | 83 | 1010.7 |
| 20260508231543 | 22 | 132 | 0.0 | 0.0 | 0.00 | 0.00 | 0.00 | 83 | 1009.3 |
| 20260508231330 | 22 | 133 | 0.0 | 0.0 | 0.00 | 0.00 | 0.00 | 83 | 1010.6 |
| 20260508231006 | 22 | 118 | 0.0 | 0.0 | 0.00 | 0.00 | 0.00 | 83 | 1009.5 |
| 20260508230825 | 22 | 93 | 0.0 | 0.0 | 0.00 | 0.00 | 0.00 | 83 | 1010.7 |
| 20260508230600 | 22 | 154 | 0.0 | 0.0 | 0.00 | 0.00 | 0.00 | 83 | 1009.4 |
| 20260508230320 | 22 | 70 | 0.0 | 0.0 | 0.00 | 0.00 | 0.00 | 83 | 1010.6 |
| 20260508230058 | 22 | 30 | 0.0 | 0.0 | 0.00 | 0.00 | 0.00 | 83 | 1009.4 |
| 20260508225816 | 22 | 58 | 0.0 | 0.0 | 0.00 | 0.00 | 0.00 | 83 | 1010.6 |
| 20260508225544 | 22 | 50 | 0.0 | 0.0 | 0.00 | 0.00 | 0.00 | 83 | 1009.4 |
| 20260508225331 | 22 | 79 | 0.0 | 0.0 | 0.00 | 0.00 | 0.00 | 83 | 1010.6 |
| 20260508225036 | 22 | 78 | 0.0 | 0.0 | 0.00 | 0.00 | 0.00 | 83 | 1009.4 |
| 20260508224827 | 22 | 111 | 0.0 | 0.0 | 0.00 | 0.00 | 0.00 | 83 | 1010.6 |
| 20260508224534 | 22 | 102 | 0.0 | 0.0 | 0.00 | 0.00 | 0.00 | 83 | 1009.6 |
| 20260508224323 | 22 | 120 | 0.0 | 0.0 | 0.00 | 0.00 | 0.00 | 82 | 1010.7 |
| 20260508224025 | 22 | 108 | 0.0 | 0.0 | 0.00 | 0.00 | 0.00 | 82 | 1009.5 |
| 20260508223821 | 22 | 121 | 0.0 | 0.0 | 0.00 | 0.00 | 0.00 | 82 | 1010.7 |
| 20260508223519 | 22 | 78 | 0.0 | 0.0 | 0.00 | 0.00 | 0.00 | 82 | 1009.4 |
| 20260508223317 | 23 | 66 | 0.0 | 0.0 | 0.00 | 0.00 | 0.00 | 82 | 1010.6 |
| 20260508223024 | 22 | 90 | 0.0 | 0.0 | 0.00 | 0.00 | 0.00 | 82 | 1009.5 |
| 20260508222833 | 23 | 97 | 0.0 | 0.0 | 0.00 | 0.00 | 0.00 | 82 | 1010.5 |
| 20260508222603 | 22 | 116 | 0.0 | 0.0 | 0.00 | 0.00 | 0.00 | 82 | 1009.5 |
| 20260508222330 | 23 | 154 | 0.0 | 0.0 | 0.00 | 0.00 | 0.00 | 82 | 1010.7 |
| 20260508222054 | 22 | 115 | 0.0 | 0.0 | 0.00 | 0.00 | 0.00 | 82 | 1009.6 |
| 20260508221847 | 22 | 99 | 0.0 | 0.0 | 0.00 | 0.00 | 0.00 | 82 | 1010.7 |
| 20260508221531 | 22 | 133 | 0.0 | 0.0 | 0.00 | 0.00 | 0.00 | 83 | 1009.6 |
| 20260508221322 | 22 | 145 | 0.0 | 0.0 | 0.00 | 0.00 | 0.00 | 83 | 1010.8 |
| 20260508221008 | 22 | 141 | 0.0 | 0.0 | 0.00 | 0.00 | 0.00 | 82 | 1009.6 |
| 20260508220819 | 22 | 98 | 0.0 | 0.0 | 0.00 | 0.00 | 0.00 | 82 | 1010.7 |
| 20260508220604 | 22 | 127 | 0.0 | 0.0 | 0.00 | 0.00 | 0.00 | 82 | 1009.7 |
| 20260508220316 | 22 | 130 | 0.0 | 0.0 | 0.00 | 0.00 | 0.00 | 82 | 1010.8 |
| 20260508220054 | 22 | 102 | 0.0 | 0.0 | 0.00 | 0.00 | 0.00 | 82 | 1009.7 |
| 20260508215832 | 22 | 87 | 0.0 | 0.0 | 0.00 | 0.00 | 0.00 | 81 | 1010.9 |
| 20260508215518 | 22 | 88 | 0.0 | 0.0 | 0.00 | 0.00 | 0.00 | 82 | 1009.6 |
| 20260508215329 | 23 | 81 | 0.0 | 0.0 | 0.00 | 0.00 | 0.00 | 82 | 1010.9 |
| 20260508215008 | 22 | 137 | 0.0 | 0.0 | 0.00 | 0.00 | 0.00 | 82 | 1009.8 |
| 20260508214845 | 23 | 145 | 0.0 | 0.0 | 0.00 | 0.00 | 0.00 | 81 | 1010.9 |
| 20260508214542 | 22 | 157 | 0.0 | 0.0 | 0.00 | 0.00 | 0.00 | 81 | 1009.9 |
| 20260508214341 | 23 | 112 | 0.0 | 0.0 | 0.00 | 0.00 | 0.00 | 81 | 1011.0 |
| 20260508214014 | 22 | 106 | 0.0 | 0.0 | 0.00 | 0.00 | 0.00 | 81 | 1009.9 |
| 20260508213816 | 23 | 139 | 0.0 | 0.0 | 0.00 | 0.00 | 0.00 | 81 | 1011.0 |
| 20260508213555 | 23 | 84 | 0.0 | 0.0 | 0.00 | 0.00 | 0.00 | 81 | 1009.8 |
| 20260508213333 | 23 | 115 | 0.0 | 0.0 | 0.00 | 0.00 | 0.00 | 82 | 1011.0 |
| 20260508213059 | 22 | 159 | 0.0 | 0.0 | 0.00 | 0.00 | 0.00 | 82 | 1010.0 |
| 20260508212828 | 23 | 78 | 0.0 | 0.0 | 0.00 | 0.00 | 0.00 | 82 | 1011.0 |
| 20260508212538 | 22 | 152 | 0.0 | 0.0 | 0.00 | 0.00 | 0.00 | 81 | 1010.0 |
| 20260508212323 | 23 | 106 | 0.0 | 0.0 | 0.00 | 0.00 | 0.00 | 82 | 1011.1 |
| 20260508212033 | 22 | 129 | 0.0 | 0.0 | 0.00 | 0.00 | 0.00 | 82 | 1010.0 |
| 20260508211819 | 22 | 90 | 0.0 | 0.0 | 0.00 | 0.00 | 0.00 | 82 | 1011.1 |
| 20260508211558 | 22 | 81 | 0.0 | 0.0 | 0.00 | 0.00 | 0.00 | 82 | 1010.3 |
| 20260508211335 | 22 | 118 | 0.0 | 0.0 | 0.00 | 0.00 | 0.00 | 82 | 1011.4 |
| 20260508211029 | 22 | 162 | 0.0 | 0.0 | 0.00 | 0.00 | 0.00 | 82 | 1010.3 |
| 20260508210828 | 22 | 68 | 0.0 | 0.0 | 0.00 | 0.00 | 0.00 | 83 | 1011.4 |
| 20260508210509 | 22 | 87 | 0.0 | 0.0 | 0.00 | 0.00 | 0.00 | 82 | 1010.3 |
| 20260508210324 | 22 | 126 | 0.0 | 0.0 | 0.00 | 0.00 | 0.00 | 82 | 1011.5 |
| 20260508210002 | 22 | 119 | 0.0 | 0.0 | 0.00 | 0.00 | 0.00 | 82 | 1010.5 |
| 20260508205820 | 22 | 102 | 0.0 | 0.0 | 0.00 | 0.00 | 0.00 | 82 | 1011.5 |
| 20260508205557 | 22 | 117 | 0.0 | 0.0 | 0.00 | 0.00 | 0.00 | 82 | 1010.7 |
| 20260508205317 | 22 | 133 | 0.0 | 0.0 | 0.00 | 0.00 | 0.00 | 83 | 1011.7 |
| 20260508205053 | 22 | 163 | 0.0 | 0.0 | 0.00 | 0.00 | 0.00 | 84 | 1010.6 |
| 20260508204834 | 22 | 120 | 0.0 | 0.0 | 0.00 | 0.00 | 0.00 | 83 | 1011.6 |
| 20260508204546 | 22 | 64 | 0.0 | 0.0 | 0.00 | 0.00 | 0.00 | 83 | 1010.6 |
| 20260508204329 | 22 | 85 | 0.0 | 0.0 | 0.00 | 0.00 | 0.00 | 83 | 1011.8 |
| 20260508204039 | 22 | 131 | 0.0 | 0.0 | 0.00 | 0.00 | 0.00 | 83 | 1010.9 |
| 20260508203825 | 22 | 89 | 0.0 | 0.0 | 0.00 | 0.00 | 0.00 | 82 | 1011.9 |
| 20260508203535 | 22 | 76 | 0.0 | 0.0 | 0.00 | 0.00 | 0.00 | 82 | 1010.8 |
| 20260508203322 | 22 | 112 | 0.0 | 0.0 | 0.00 | 0.00 | 0.00 | 82 | 1011.9 |
| 20260508203032 | 22 | 86 | 0.0 | 0.0 | 0.00 | 0.00 | 0.00 | 82 | 1010.8 |
| 20260508202817 | 22 | 139 | 0.0 | 0.0 | 0.00 | 0.00 | 0.00 | 82 | 1012.0 |
| 20260508202519 | 22 | 25 | 0.0 | 0.0 | 0.00 | 0.00 | 0.00 | 83 | 1011.0 |
| 20260508202332 | 22 | 81 | 0.0 | 0.0 | 0.00 | 0.00 | 0.00 | 83 | 1012.1 |
| 20260508202103 | 22 | 158 | 0.0 | 0.0 | 0.00 | 0.00 | 0.00 | 83 | 1011.1 |
| 20260508201827 | 22 | 88 | 0.0 | 0.0 | 0.00 | 0.00 | 0.00 | 83 | 1012.2 |
| 20260508201609 | 21 | 153 | 0.0 | 0.0 | 0.00 | 0.00 | 0.00 | 84 | 1011.2 |
| 20260508201323 | 21 | 140 | 0.0 | 0.0 | 0.00 | 0.00 | 0.00 | 83 | 1012.3 |
| 20260508201025 | 21 | 160 | 0.0 | 0.0 | 0.00 | 0.00 | 0.00 | 84 | 1011.4 |
| 20260508200838 | 21 | 130 | 0.0 | 0.0 | 0.00 | 0.00 | 0.00 | 84 | 1012.4 |
| 20260508200549 | 21 | 137 | 0.0 | 0.0 | 0.00 | 0.00 | 0.00 | 83 | 1011.7 |
| 20260508200332 | 21 | 141 | 0.0 | 0.0 | 0.00 | 0.00 | 0.00 | 84 | 1012.7 |
| 20260508200045 | 21 | 110 | 0.0 | 0.0 | 0.00 | 0.00 | 0.00 | 84 | 1011.8 |
| 20260508195828 | 21 | 144 | 0.0 | 0.0 | 0.00 | 0.03 | 0.00 | 84 | 1012.7 |
| 20260508195532 | 21 | 156 | 0.0 | 0.0 | 0.00 | 0.03 | 0.00 | 84 | 1011.7 |
| 20260508195325 | 21 | 129 | 0.0 | 0.0 | 0.00 | 0.03 | 0.00 | 84 | 1012.7 |
| 20260508195023 | 21 | 83 | 0.0 | 0.0 | 0.00 | 0.03 | 0.00 | 84 | 1011.8 |
| 20260508194820 | 21 | 114 | 0.0 | 0.0 | 0.00 | 0.03 | 0.00 | 84 | 1012.7 |
| 20260508194507 | 21 | 103 | 0.0 | 0.0 | 0.00 | 0.03 | 0.00 | 84 | 1011.7 |
| 20260508194317 | 21 | 108 | 0.0 | 0.0 | 0.00 | 0.03 | 0.00 | 84 | 1012.6 |
| 20260508194101 | 21 | 89 | 0.0 | 0.0 | 0.00 | 0.03 | 0.00 | 85 | 1011.8 |
| 20260508193833 | 21 | 104 | 0.0 | 0.0 | 0.00 | 0.03 | 0.00 | 84 | 1012.8 |
| 20260508193557 | 21 | 112 | 0.0 | 0.0 | 0.00 | 0.03 | 0.00 | 84 | 1011.7 |
| 20260508193330 | 21 | 137 | 0.0 | 0.0 | 0.00 | 0.03 | 0.00 | 84 | 1012.9 |
| 20260508193054 | 21 | 106 | 0.0 | 0.0 | 0.00 | 0.03 | 0.00 | 84 | 1011.9 |
| 20260508192825 | 21 | 87 | 0.0 | 0.0 | 0.00 | 0.03 | 0.00 | 84 | 1012.9 |
| 20260508192541 | 20 | 114 | 0.0 | 0.0 | 0.00 | 0.03 | 0.00 | 84 | 1011.8 |
| 20260508192323 | 21 | 116 | 0.0 | 0.0 | 0.00 | 0.03 | 0.00 | 85 | 1012.9 |
| 20260508192036 | 20 | 92 | 0.0 | 0.0 | 0.00 | 0.03 | 0.00 | 85 | 1012.0 |
| 20260508191839 | 20 | 107 | 0.0 | 0.0 | 0.00 | 0.03 | 0.00 | 85 | 1013.1 |
| 20260508191559 | 20 | 106 | 0.0 | 0.0 | 0.00 | 0.03 | 0.00 | 85 | 1012.2 |
| 20260508191315 | 20 | 154 | 0.0 | 0.0 | 0.00 | 0.03 | 0.00 | 85 | 1013.1 |
| 20260508191051 | 20 | 97 | 0.0 | 0.0 | 0.00 | 0.03 | 0.00 | 85 | 1012.3 |
| 20260508190831 | 20 | 95 | 0.0 | 0.0 | 0.00 | 0.03 | 0.00 | 85 | 1013.2 |
| 20260508190547 | 20 | 100 | 0.0 | 0.0 | 0.00 | 0.03 | 0.00 | 85 | 1012.2 |
| 20260508190327 | 20 | 145 | 0.0 | 0.0 | 0.00 | 0.03 | 0.00 | 85 | 1013.2 |
| 20260508190049 | 20 | 140 | 0.0 | 0.0 | 0.00 | 0.03 | 0.00 | 85 | 1012.2 |
| 20260508185823 | 20 | 47 | 0.0 | 0.0 | 0.00 | 0.03 | 0.00 | 85 | 1013.2 |
| 20260508185535 | 20 | 133 | 0.0 | 0.0 | 0.00 | 0.03 | 0.00 | 85 | 1012.3 |
| 20260508185318 | 20 | 111 | 0.0 | 0.0 | 0.00 | 0.03 | 0.00 | 85 | 1013.3 |
| 20260508185103 | 20 | 128 | 0.0 | 0.0 | 0.00 | 0.03 | 0.00 | 85 | 1012.4 |
| 20260508184853 | 20 | 75 | 0.0 | 0.0 | 0.00 | 0.03 | 0.00 | 85 | 1013.3 |
| 20260508184538 | 20 | 56 | 0.0 | 0.0 | 0.00 | 0.03 | 0.00 | 85 | 1012.4 |
| 20260508184329 | 20 | 21 | 0.0 | 0.0 | 0.00 | 0.03 | 0.00 | 85 | 1013.1 |
| 20260508184031 | 20 | 44 | 0.0 | 0.0 | 0.00 | 0.03 | 0.00 | 85 | 1012.2 |
| 20260508183823 | 20 | 77 | 0.0 | 0.0 | 0.00 | 0.03 | 0.00 | 86 | 1013.2 |
| 20260508183557 | 20 | 102 | 0.0 | 0.0 | 0.00 | 0.03 | 0.00 | 85 | 1012.3 |
| 20260508183320 | 20 | 142 | 0.0 | 0.0 | 0.00 | 0.03 | 0.00 | 85 | 1013.2 |
| 20260508183054 | 20 | 87 | 0.0 | 0.0 | 0.00 | 0.03 | 0.00 | 85 | 1012.4 |
| 20260508182816 | 20 | 51 | 0.0 | 0.0 | 0.00 | 0.03 | 0.00 | 86 | 1013.2 |
| 20260508182544 | 20 | 95 | 0.0 | 0.0 | 0.00 | 0.03 | 0.00 | 86 | 1012.4 |
| 20260508182328 | 20 | 61 | 0.0 | 0.0 | 0.00 | 0.03 | 0.00 | 85 | 1013.3 |
| 20260508182035 | 20 | 91 | 0.0 | 0.0 | 0.00 | 0.03 | 0.00 | 86 | 1012.6 |
| 20260508181825 | 20 | 85 | 0.0 | 0.0 | 0.00 | 0.03 | 0.00 | 85 | 1013.5 |
| 20260508181543 | 20 | 27 | 0.0 | 0.0 | 0.00 | 0.03 | 0.00 | 86 | 1012.7 |
| 20260508181322 | 20 | 120 | 0.0 | 0.0 | 0.00 | 0.03 | 0.00 | 85 | 1013.6 |
| 20260508181020 | 20 | 120 | 0.0 | 0.0 | 0.00 | 0.03 | 0.00 | 86 | 1012.8 |
| 20260508180818 | 20 | 69 | 0.0 | 0.0 | 0.00 | 0.03 | 0.00 | 86 | 1013.7 |
| 20260508180504 | 20 | 127 | 0.0 | 0.0 | 0.00 | 0.03 | 0.00 | 86 | 1012.8 |
| 20260508180314 | 20 | 99 | 0.0 | 0.0 | 0.00 | 0.03 | 0.00 | 86 | 1013.8 |
| 20260508180110 | 20 | 163 | 0.0 | 0.0 | 0.00 | 0.03 | 0.00 | 86 | 1012.8 |
| 20260508175831 | 20 | 139 | 0.0 | 0.0 | 0.00 | 0.03 | 0.00 | 86 | 1013.7 |
| 20260508175547 | 19 | 149 | 0.0 | 0.0 | 0.00 | 0.03 | 0.00 | 86 | 1012.9 |
| 20260508175326 | 20 | 114 | 0.0 | 0.0 | 0.00 | 0.03 | 0.00 | 86 | 1013.8 |
| 20260508175042 | 19 | 21 | 0.0 | 0.0 | 0.00 | 0.03 | 0.00 | 86 | 1012.9 |
| 20260508174843 | 20 | 50 | 0.0 | 0.0 | 0.00 | 0.03 | 0.00 | 86 | 1013.8 |
| 20260508174515 | 19 | 74 | 0.0 | 0.0 | 0.00 | 0.03 | 0.00 | 86 | 1013.0 |
| 20260508174339 | 20 | 88 | 0.0 | 0.0 | 0.00 | 0.03 | 0.00 | 86 | 1013.9 |
| 20260508174041 | 19 | 110 | 0.0 | 0.0 | 0.00 | 0.03 | 0.00 | 85 | 1013.0 |
| 20260508173814 | 20 | 110 | 0.0 | 0.0 | 0.00 | 0.03 | 0.00 | 86 | 1013.9 |
| 20260508173533 | 19 | 71 | 0.0 | 0.0 | 0.00 | 0.03 | 0.00 | 86 | 1013.0 |
| 20260508173330 | 19 | 60 | 0.0 | 0.0 | 0.00 | 0.03 | 0.00 | 86 | 1013.9 |
| 20260508173030 | 19 | 77 | 0.0 | 0.0 | 0.00 | 0.03 | 0.00 | 86 | 1013.2 |
| 20260508172826 | 19 | 93 | 0.0 | 0.0 | 0.00 | 0.03 | 0.00 | 86 | 1014.1 |
| 20260508172524 | 19 | 72 | 0.0 | 0.0 | 0.00 | 0.03 | 0.00 | 86 | 1013.3 |
| 20260508172322 | 19 | 75 | 0.0 | 0.0 | 0.00 | 0.03 | 0.00 | 86 | 1014.2 |
| 20260508172003 | 19 | 30 | 0.0 | 0.0 | 0.00 | 0.03 | 0.00 | 86 | 1013.4 |
| 20260508171817 | 19 | 66 | 0.0 | 0.0 | 0.00 | 0.03 | 0.00 | 86 | 1014.3 |
| 20260508171557 | 19 | 58 | 0.0 | 0.0 | 0.00 | 0.03 | 0.00 | 86 | 1013.5 |
| 20260508171314 | 19 | 73 | 0.0 | 0.0 | 0.00 | 0.03 | 0.00 | 86 | 1014.5 |
| 20260508171049 | 18 | 85 | 0.0 | 0.0 | 0.00 | 0.03 | 0.00 | 86 | 1013.6 |
| 20260508170851 | 19 | 75 | 0.0 | 0.0 | 0.00 | 0.03 | 0.00 | 86 | 1014.5 |
| 20260508170515 | 18 | 120 | 0.0 | 0.0 | 0.00 | 0.03 | 0.00 | 86 | 1013.9 |
| 20260508170327 | 19 | 121 | 0.0 | 0.0 | 0.00 | 0.03 | 0.00 | 86 | 1014.7 |
| 20260508170007 | 19 | 87 | 0.0 | 0.0 | 0.00 | 0.03 | 0.00 | 86 | 1014.0 |
| 20260508165824 | 19 | 95 | 0.0 | 0.0 | 0.00 | 0.03 | 0.00 | 86 | 1014.8 |
| 20260508165601 | 19 | 110 | 0.0 | 0.0 | 0.00 | 0.03 | 0.00 | 86 | 1014.1 |
| 20260508165340 | 19 | 118 | 0.0 | 0.0 | 0.00 | 0.03 | 0.00 | 86 | 1014.9 |
| 20260508165049 | 19 | 73 | 0.0 | 6.4 | 0.00 | 0.03 | 0.00 | 86 | 1014.1 |
| 20260508164830 | 19 | 125 | 0.0 | 6.4 | 0.00 | 0.03 | 0.00 | 86 | 1014.9 |
| 20260508164543 | 18 | 125 | 0.0 | 9.7 | 0.00 | 0.03 | 0.00 | 86 | 1014.1 |
| 20260508164326 | 19 | 120 | 0.0 | 9.7 | 0.00 | 0.03 | 0.00 | 86 | 1014.9 |
| 20260508164031 | 18 | 108 | 3.2 | 11.3 | 0.00 | 0.03 | 0.00 | 86 | 1014.1 |
| 20260508163822 | 18 | 147 | 1.6 | 11.3 | 0.00 | 0.03 | 0.00 | 86 | 1014.9 |
| 20260508163521 | 18 | 148 | 1.6 | 11.3 | 0.00 | 0.03 | 0.00 | 86 | 1014.2 |
| 20260508163318 | 18 | 148 | 4.8 | 11.3 | 0.00 | 0.03 | 0.00 | 86 | 1015.0 |
| 20260508163017 | 18 | 97 | 3.2 | 11.3 | 0.00 | 0.03 | 0.00 | 86 | 1014.2 |
| 20260508162815 | 18 | 90 | 4.8 | 11.3 | 0.00 | 0.03 | 0.00 | 86 | 1015.0 |
| 20260508162503 | 18 | 130 | 3.2 | 11.3 | 0.00 | 0.03 | 0.00 | 86 | 1014.3 |
| 20260508162331 | 18 | 109 | 6.4 | 11.3 | 0.00 | 0.03 | 0.00 | 86 | 1015.1 |
| 20260508162058 | 18 | 197 | 3.2 | 12.9 | 0.00 | 0.03 | 0.00 | 87 | 1014.3 |
| 20260508161826 | 18 | 197 | 4.8 | 12.9 | 0.00 | 0.03 | 0.00 | 86 | 1015.1 |
| 20260508161535 | 18 | 148 | 3.2 | 12.9 | 0.00 | 0.03 | 0.00 | 86 | 1014.4 |
| 20260508161324 | 18 | 148 | 6.4 | 12.9 | 0.00 | 0.03 | 0.00 | 86 | 1015.1 |
| 20260508161023 | 18 | 122 | 4.8 | 12.9 | 0.00 | 0.03 | 0.00 | 86 | 1014.4 |
| 20260508160840 | 18 | 147 | 8.0 | 12.9 | 0.00 | 0.03 | 0.00 | 86 | 1015.2 |
| 20260508160548 | 18 | 170 | 1.6 | 9.7 | 0.00 | 0.03 | 0.00 | 86 | 1014.3 |
| 20260508160316 | 18 | 214 | 3.2 | 8.0 | 0.00 | 0.03 | 0.00 | 86 | 1015.1 |
| 20260508160041 | 18 | 185 | 4.8 | 8.0 | 0.00 | 0.03 | 0.00 | 86 | 1014.5 |
| 20260508155851 | 18 | 262 | 4.8 | 9.7 | 0.00 | 0.03 | 0.00 | 86 | 1015.2 |
| 20260508155505 | 18 | 125 | 3.2 | 8.0 | 0.00 | 0.03 | 0.00 | 87 | 1014.4 |
| 20260508155327 | 18 | 127 | 3.2 | 8.0 | 0.00 | 0.03 | 0.00 | 86 | 1015.2 |
| 20260508155059 | 18 | 149 | 4.8 | 9.7 | 0.00 | 0.03 | 0.00 | 86 | 1014.4 |
| 20260508154824 | 18 | 161 | 6.4 | 11.3 | 0.00 | 0.03 | 0.00 | 87 | 1015.1 |
| 20260508154557 | 17 | 149 | 3.2 | 11.3 | 0.00 | 0.03 | 0.00 | 87 | 1014.5 |
| 20260508154321 | 18 | 152 | 6.4 | 11.3 | 0.00 | 0.03 | 0.00 | 86 | 1015.3 |
| 20260508154049 | 17 | 167 | 3.2 | 8.0 | 0.00 | 0.03 | 0.00 | 86 | 1014.5 |
| 20260508153817 | 17 | 215 | 3.2 | 6.4 | 0.00 | 0.03 | 0.00 | 86 | 1015.1 |
| 20260508153537 | 17 | 214 | 3.2 | 12.9 | 0.00 | 0.03 | 0.00 | 86 | 1014.4 |
| 20260508153329 | 17 | 165 | 4.8 | 12.9 | 0.00 | 0.03 | 0.00 | 86 | 1015.2 |
| 20260508153031 | 17 | 166 | 4.8 | 12.9 | 0.00 | 0.03 | 0.00 | 86 | 1014.4 |
| 20260508152845 | 17 | 147 | 6.4 | 12.9 | 0.00 | 0.03 | 0.00 | 86 | 1015.3 |
| 20260508152500 | 17 | 161 | 8.0 | 9.7 | 0.00 | 0.03 | 0.00 | 86 | 1014.5 |
| 20260508152320 | 17 | 135 | 6.4 | 11.3 | 0.00 | 0.03 | 0.00 | 87 | 1015.1 |
| 20260508152055 | 17 | 145 | 4.8 | 8.0 | 0.00 | 0.03 | 0.00 | 87 | 1014.4 |
| 20260508151817 | 17 | 187 | 4.8 | 9.7 | 0.00 | 0.03 | 0.00 | 87 | 1015.1 |
| 20260508151547 | 17 | 141 | 6.4 | 9.7 | 0.00 | 0.03 | 0.00 | 87 | 1014.4 |
| 20260508151332 | 17 | 162 | 6.4 | 9.7 | 0.00 | 0.03 | 0.00 | 87 | 1015.1 |
| 20260508151039 | 16 | 162 | 3.2 | 12.9 | 0.00 | 0.03 | 0.00 | 87 | 1014.4 |
| 20260508150829 | 17 | 162 | 8.0 | 12.9 | 0.00 | 0.03 | 0.00 | 87 | 1015.1 |
| 20260508150533 | 16 | 165 | 6.4 | 12.9 | 0.00 | 0.03 | 0.00 | 87 | 1014.4 |
| 20260508150326 | 17 | 156 | 9.7 | 12.9 | 0.00 | 0.03 | 0.00 | 87 | 1015.0 |
| 20260508150027 | 16 | 162 | 4.8 | 9.7 | 0.00 | 0.03 | 0.00 | 87 | 1014.4 |
| 20260508145824 | 17 | 188 | 6.4 | 9.7 | 0.00 | 0.03 | 0.00 | 87 | 1015.1 |
| 20260508145523 | 16 | 133 | 3.2 | 11.3 | 0.00 | 0.03 | 0.00 | 87 | 1014.4 |
| 20260508145320 | 16 | 149 | 6.4 | 11.3 | 0.00 | 0.03 | 0.00 | 87 | 1015.0 |
| 20260508145004 | 16 | 149 | 6.4 | 12.9 | 0.00 | 0.03 | 0.00 | 87 | 1014.3 |
| 20260508144817 | 16 | 169 | 8.0 | 12.9 | 0.00 | 0.03 | 0.00 | 87 | 1015.0 |
| 20260508144601 | 16 | 156 | 4.8 | 12.9 | 0.00 | 0.03 | 0.00 | 87 | 1014.3 |
| 20260508144314 | 16 | 164 | 8.0 | 12.9 | 0.00 | 0.03 | 0.00 | 88 | 1015.0 |
| 20260508144053 | 16 | 130 | 0.0 | 4.8 | 0.00 | 0.03 | 0.00 | 88 | 1014.4 |
| 20260508143829 | 16 | 130 | 1.6 | 4.8 | 0.00 | 0.03 | 0.00 | 88 | 1014.9 |
| 20260508143545 | 16 | 130 | 1.6 | 4.8 | 0.00 | 0.03 | 0.00 | 88 | 1014.2 |
| 20260508143324 | 16 | 37 | 1.6 | 6.4 | 0.00 | 0.03 | 0.00 | 88 | 1015.0 |
| 20260508143039 | 16 | 37 | 0.0 | 8.0 | 0.00 | 0.03 | 0.00 | 89 | 1014.3 |
| 20260508142839 | 16 | 37 | 0.0 | 8.0 | 0.00 | 0.03 | 0.00 | 88 | 1014.8 |
| 20260508142527 | 15 | 4 | 4.8 | 8.0 | 0.00 | 0.03 | 0.00 | 88 | 1014.0 |
| 20260508142330 | 16 | 34 | 4.8 | 6.4 | 0.00 | 0.03 | 0.00 | 89 | 1014.6 |
| 20260508142011 | 15 | 22 | 1.6 | 4.8 | 0.00 | 0.03 | 0.00 | 89 | 1014.0 |
| 20260508141826 | 15 | 23 | 3.2 | 4.8 | 0.00 | 0.03 | 0.00 | 89 | 1014.9 |
| 20260508141509 | 15 | 22 | 0.0 | 4.8 | 0.00 | 0.03 | 0.00 | 89 | 1014.6 |
| 20260508141322 | 15 | 22 | 0.0 | 4.8 | 0.00 | 0.03 | 0.00 | 89 | 1015.3 |
| 20260508141056 | 15 | 19 | 1.6 | 4.8 | 0.00 | 0.03 | 0.00 | 89 | 1014.7 |
| 20260508140819 | 15 | 18 | 3.2 | 4.8 | 0.00 | 0.03 | 0.00 | 89 | 1015.5 |
| 20260508140553 | 15 | 101 | 1.6 | 4.8 | 0.00 | 0.03 | 0.00 | 89 | 1014.8 |
| 20260508140316 | 15 | 101 | 1.6 | 4.8 | 0.00 | 0.03 | 0.00 | 90 | 1015.5 |
| 20260508140048 | 15 | 101 | 0.0 | 3.2 | 0.00 | 0.03 | 0.00 | 90 | 1014.9 |
| 20260508135830 | 15 | 101 | 0.0 | 3.2 | 0.00 | 0.03 | 0.00 | 90 | 1015.5 |
| 20260508135533 | 15 | 101 | 0.0 | 3.2 | 0.00 | 0.03 | 0.00 | 90 | 1014.9 |
| 20260508135326 | 15 | 101 | 0.0 | 3.2 | 0.00 | 0.03 | 0.00 | 90 | 1015.6 |
| 20260508135026 | 15 | 101 | 0.0 | 3.2 | 0.00 | 0.03 | 0.00 | 90 | 1015.0 |
| 20260508134823 | 15 | 101 | 1.6 | 3.2 | 0.00 | 0.03 | 0.00 | 90 | 1015.6 |
| 20260508134511 | 14 | 101 | 0.0 | 1.6 | 0.00 | 0.03 | 0.00 | 90 | 1014.9 |
| 20260508134339 | 15 | 101 | 0.0 | 1.6 | 0.00 | 0.03 | 0.00 | 90 | 1015.6 |
| 20260508134040 | 14 | 101 | 0.0 | 1.6 | 0.00 | 0.03 | 0.00 | 90 | 1014.9 |
| 20260508133834 | 15 | 101 | 0.0 | 3.2 | 0.00 | 0.03 | 0.00 | 90 | 1015.7 |
| 20260508133532 | 14 | 101 | 0.0 | 3.2 | 0.00 | 0.03 | 0.00 | 90 | 1015.2 |
| 20260508133330 | 14 | 101 | 0.0 | 3.2 | 0.00 | 0.03 | 0.00 | 90 | 1015.9 |
| 20260508133021 | 14 | 101 | 0.0 | 1.6 | 0.00 | 0.03 | 0.00 | 90 | 1015.3 |
| 20260508132827 | 14 | 101 | 0.0 | 1.6 | 0.00 | 0.03 | 0.00 | 90 | 1015.9 |
| 20260508132514 | 14 | 102 | 0.0 | 1.6 | 0.00 | 0.03 | 0.00 | 90 | 1015.2 |
| 20260508132322 | 14 | 101 | 0.0 | 1.6 | 0.00 | 0.03 | 0.00 | 90 | 1015.9 |
| 20260508132001 | 14 | 102 | 0.0 | 1.6 | 0.00 | 0.03 | 0.00 | 90 | 1015.3 |
| 20260508131839 | 14 | 101 | 0.0 | 3.2 | 0.00 | 0.03 | 0.00 | 90 | 1015.9 |
| 20260508131535 | 14 | 101 | 0.0 | 3.2 | 0.00 | 0.03 | 0.00 | 90 | 1015.3 |
| 20260508131333 | 14 | 101 | 0.0 | 3.2 | 0.00 | 0.03 | 0.00 | 90 | 1016.0 |
| 20260508131014 | 14 | 101 | 1.6 | 3.2 | 0.00 | 0.03 | 0.00 | 90 | 1015.3 |
| 20260508130830 | 14 | 101 | 1.6 | 3.2 | 0.00 | 0.03 | 0.00 | 90 | 1016.0 |
| 20260508130506 | 14 | 101 | 0.0 | 1.6 | 0.00 | 0.03 | 0.00 | 90 | 1015.4 |
| 20260508130326 | 14 | 101 | 1.6 | 1.6 | 0.00 | 0.03 | 0.00 | 90 | 1016.1 |
| 20260508130001 | 14 | 101 | 0.0 | 3.2 | 0.00 | 0.03 | 0.00 | 90 | 1015.5 |
| 20260508125822 | 14 | 101 | 0.0 | 3.2 | 0.00 | 0.03 | 0.00 | 90 | 1016.1 |
| 20260508125557 | 13 | 101 | 0.0 | 3.2 | 0.00 | 0.03 | 0.00 | 90 | 1015.6 |
| 20260508125317 | 14 | 101 | 0.0 | 3.2 | 0.00 | 0.03 | 0.00 | 90 | 1016.3 |
| 20260508125031 | 13 | 101 | 0.0 | 1.6 | 0.00 | 0.03 | 0.00 | 90 | 1015.6 |
| 20260508124833 | 14 | 101 | 0.0 | 3.2 | 0.00 | 0.03 | 0.00 | 90 | 1016.4 |
| 20260508124514 | 13 | 101 | 0.0 | 3.2 | 0.00 | 0.03 | 0.00 | 90 | 1015.8 |
| 20260508124328 | 14 | 101 | 0.0 | 3.2 | 0.00 | 0.03 | 0.00 | 90 | 1016.4 |
| 20260508124007 | 13 | 101 | 0.0 | 4.8 | 0.00 | 0.03 | 0.00 | 90 | 1015.5 |
| 20260508123822 | 14 | 101 | 1.6 | 4.8 | 0.00 | 0.03 | 0.00 | 90 | 1016.1 |
| 20260508123601 | 13 | 101 | 1.6 | 8.0 | 0.00 | 0.03 | 0.00 | 90 | 1015.4 |
| 20260508123340 | 14 | 152 | 1.6 | 8.0 | 0.00 | 0.03 | 0.00 | 90 | 1016.1 |
| 20260508123032 | 13 | 152 | 3.2 | 8.0 | 0.00 | 0.03 | 0.00 | 90 | 1015.7 |
| 20260508122815 | 14 | 182 | 1.6 | 6.4 | 0.00 | 0.03 | 0.00 | 90 | 1016.3 |
| 20260508122512 | 13 | 181 | 1.6 | 6.4 | 0.00 | 0.03 | 0.00 | 90 | 1015.6 |
| 20260508122328 | 14 | 182 | 3.2 | 8.0 | 0.00 | 0.03 | 0.00 | 91 | 1016.3 |
| 20260508122007 | 13 | 182 | 3.2 | 8.0 | 0.00 | 0.03 | 0.00 | 91 | 1015.7 |
| 20260508121825 | 14 | 182 | 4.8 | 8.0 | 0.00 | 0.03 | 0.00 | 91 | 1016.2 |
| 20260508121610 | 13 | 182 | 4.8 | 8.0 | 0.00 | 0.03 | 0.00 | 91 | 1015.5 |
| 20260508121341 | 13 | 195 | 4.8 | 6.4 | 0.00 | 0.03 | 0.00 | 91 | 1016.1 |
| 20260508121033 | 13 | 149 | 1.6 | 3.2 | 0.00 | 0.03 | 0.00 | 91 | 1015.4 |
| 20260508120817 | 13 | 149 | 1.6 | 3.2 | 0.00 | 0.03 | 0.00 | 91 | 1015.9 |
| 20260508120514 | 13 | 149 | 0.0 | 1.6 | 0.00 | 0.03 | 0.00 | 91 | 1015.2 |
| 20260508120354 | 13 | 149 | 0.0 | 1.6 | 0.00 | 0.03 | 0.00 | 91 | 1015.9 |
| 20260508120055 | 13 | 149 | 0.0 | 3.2 | 0.00 | 0.03 | 0.00 | 91 | 1015.1 |
| 20260508115828 | 13 | 149 | 0.0 | 3.2 | 0.00 | 0.03 | 0.00 | 91 | 1015.8 |
| 20260508115526 | 13 | 149 | 0.0 | 3.2 | 0.00 | 0.03 | 0.00 | 91 | 1015.1 |
| 20260508115324 | 13 | 149 | 0.0 | 4.8 | 0.00 | 0.03 | 0.00 | 91 | 1015.7 |
| 20260508115050 | 13 | 149 | 1.6 | 8.0 | 0.00 | 0.03 | 0.00 | 91 | 1015.1 |
| 20260508114841 | 13 | 149 | 1.6 | 8.0 | 0.00 | 0.03 | 0.00 | 91 | 1015.7 |
| 20260508114522 | 13 | 149 | 3.2 | 8.0 | 0.00 | 0.03 | 0.00 | 91 | 1015.2 |
| 20260508114316 | 13 | 149 | 3.2 | 4.8 | 0.00 | 0.03 | 0.00 | 91 | 1015.8 |
| 20260508114011 | 13 | 149 | 1.6 | 4.8 | 0.00 | 0.03 | 0.00 | 91 | 1015.1 |
| 20260508113852 | 13 | 149 | 3.2 | 4.8 | 0.00 | 0.03 | 0.00 | 91 | 1015.8 |
| 20260508113542 | 13 | 149 | 1.6 | 4.8 | 0.00 | 0.03 | 0.00 | 91 | 1015.0 |
| 20260508113347 | 13 | 149 | 3.2 | 4.8 | 0.00 | 0.03 | 0.00 | 91 | 1015.6 |